createdAt,value
2017-12-20T00:00:29.435Z,1019.23
2017-12-20T00:01:29.445Z,1019.22
2017-12-20T00:02:29.458Z,1019.22
2017-12-20T00:03:29.469Z,1019.14
2017-12-20T00:04:29.481Z,1019.16
2017-12-20T00:05:29.493Z,1019.13
2017-12-20T00:06:29.504Z,1019.1
2017-12-20T00:07:29.518Z,1019.09
2017-12-20T00:08:29.536Z,1019.07
2017-12-20T00:09:29.541Z,1019.1
2017-12-20T00:10:29.554Z,1019.11
2017-12-20T00:11:29.567Z,1019.07
2017-12-20T00:12:29.577Z,1019.12
2017-12-20T00:13:29.587Z,1019.12
2017-12-20T00:14:29.599Z,1019.13
2017-12-20T00:15:29.611Z,1019.13
2017-12-20T00:16:29.622Z,1019.13
2017-12-20T00:17:29.635Z,1019.1
2017-12-20T00:18:29.646Z,1019.11
2017-12-20T00:19:29.667Z,1019.13
2017-12-20T00:20:29.670Z,1019.14
2017-12-20T00:21:29.683Z,1019.15
2017-12-20T00:22:29.693Z,1019.13
2017-12-20T00:23:29.705Z,1019.1
2017-12-20T00:24:29.778Z,1019.1
2017-12-20T00:25:29.729Z,1019.07
2017-12-20T00:26:29.743Z,1019.12
2017-12-20T00:27:29.753Z,1019.12
2017-12-20T00:28:29.764Z,1019.12
2017-12-20T00:29:29.776Z,1019.13
2017-12-20T00:30:29.790Z,1019.13
2017-12-20T00:31:29.800Z,1019.11
2017-12-20T00:32:29.813Z,1019.08
2017-12-20T00:33:29.822Z,1019.06
2017-12-20T00:34:29.834Z,1019.08
2017-12-20T00:35:29.846Z,1019.06
2017-12-20T00:36:29.859Z,1019.09
2017-12-20T00:37:29.869Z,1019.15
2017-12-20T00:38:29.881Z,1019.2
2017-12-20T00:39:29.894Z,1019.22
2017-12-20T00:40:29.909Z,1019.28
2017-12-20T00:41:29.916Z,1019.25
2017-12-20T00:42:29.929Z,1019.24
2017-12-20T00:43:29.941Z,1019.19
2017-12-20T00:44:29.952Z,1019.19
2017-12-20T00:45:29.965Z,1019.16
2017-12-20T00:46:29.976Z,1019.18
2017-12-20T00:47:29.989Z,1019.15
2017-12-20T00:48:30.000Z,1019.2
2017-12-20T00:49:30.012Z,1019.18
2017-12-20T00:50:30.027Z,1019.15
2017-12-20T00:51:30.037Z,1019.15
2017-12-20T00:52:30.048Z,1019.11
2017-12-20T00:53:30.059Z,1019.11
2017-12-20T00:54:30.074Z,1019.12
2017-12-20T00:55:30.082Z,1019.13
2017-12-20T00:56:30.094Z,1019.13
2017-12-20T00:57:30.106Z,1019.15
2017-12-20T00:58:30.118Z,1019.17
2017-12-20T00:59:30.130Z,1019.16
2017-12-20T01:00:30.142Z,1019.23
2017-12-20T01:01:30.155Z,1019.22
2017-12-20T01:02:30.168Z,1019.24
2017-12-20T01:03:30.177Z,1019.24
2017-12-20T01:04:30.189Z,1019.25
2017-12-20T01:05:30.201Z,1019.22
2017-12-20T01:06:30.212Z,1019.23
2017-12-20T01:07:30.225Z,1019.2
2017-12-20T01:08:30.238Z,1019.21
2017-12-20T01:09:30.249Z,1019.2
2017-12-20T01:10:30.260Z,1019.16
2017-12-20T01:11:30.272Z,1019.17
2017-12-20T01:12:30.284Z,1019.18
2017-12-20T01:13:30.295Z,1019.16
2017-12-20T01:14:30.307Z,1019.2
2017-12-20T01:15:30.318Z,1019.2
2017-12-20T01:16:30.332Z,1019.22
2017-12-20T01:17:30.342Z,1019.2
2017-12-20T01:18:30.356Z,1019.28
2017-12-20T01:19:30.367Z,1019.25
2017-12-20T01:20:30.379Z,1019.28
2017-12-20T01:21:30.392Z,1019.28
2017-12-20T01:22:30.403Z,1019.3
2017-12-20T01:23:30.420Z,1019.37
2017-12-20T01:24:30.426Z,1019.4
2017-12-20T01:25:30.441Z,1019.4
2017-12-20T01:26:30.450Z,1019.37
2017-12-20T01:27:30.464Z,1019.41
2017-12-20T01:28:30.473Z,1019.4
2017-12-20T01:29:30.488Z,1019.37
2017-12-20T01:30:30.499Z,1019.37
2017-12-20T01:31:30.508Z,1019.34
2017-12-20T01:32:30.521Z,1019.32
2017-12-20T01:33:30.534Z,1019.3
2017-12-20T01:34:30.546Z,1019.31
2017-12-20T01:35:30.556Z,1019.3
2017-12-20T01:36:30.569Z,1019.32
2017-12-20T01:37:30.580Z,1019.29
2017-12-20T01:38:30.595Z,1019.28
2017-12-20T01:39:30.603Z,1019.26
2017-12-20T01:40:30.666Z,1019.25
2017-12-20T01:41:30.628Z,1019.24
2017-12-20T01:42:30.639Z,1019.19
2017-12-20T01:43:30.651Z,1019.13
2017-12-20T01:44:30.663Z,1019.1
2017-12-20T01:45:30.726Z,1019.08
2017-12-20T01:46:30.686Z,1019.12
2017-12-20T01:47:30.699Z,1019.13
2017-12-20T01:48:30.710Z,1019.15
2017-12-20T01:49:30.728Z,1019.16
2017-12-20T01:50:30.783Z,1019.13
2017-12-20T01:51:30.747Z,1019.12
2017-12-20T01:52:30.757Z,1019.12
2017-12-20T01:53:30.770Z,1019.09
2017-12-20T01:54:30.781Z,1019.12
2017-12-20T01:55:30.843Z,1019.11
2017-12-20T01:56:30.805Z,1019.14
2017-12-20T01:57:30.817Z,1019.14
2017-12-20T01:58:30.829Z,1019.14
2017-12-20T01:59:30.841Z,1019.17
2017-12-20T02:00:30.903Z,1019.17
2017-12-20T02:01:30.868Z,1019.17
2017-12-20T02:02:30.876Z,1019.1
2017-12-20T02:03:30.888Z,1019.11
2017-12-20T02:04:30.903Z,1019.04
2017-12-20T02:05:30.911Z,1018.99
2017-12-20T02:06:30.926Z,1018.96
2017-12-20T02:07:30.935Z,1018.96
2017-12-20T02:08:30.946Z,1018.96
2017-12-20T02:09:30.958Z,1018.98
2017-12-20T02:10:30.972Z,1019
2017-12-20T02:11:30.981Z,1019.02
2017-12-20T02:12:30.993Z,1019.09
2017-12-20T02:13:31.008Z,1019.05
2017-12-20T02:14:31.023Z,1018.99
2017-12-20T02:15:31.078Z,1019.04
2017-12-20T02:16:31.041Z,1019.02
2017-12-20T02:17:31.053Z,1019.02
2017-12-20T02:18:31.065Z,1019.01
2017-12-20T02:19:31.079Z,1019.06
2017-12-20T02:20:31.090Z,1019.09
2017-12-20T02:21:31.100Z,1019.07
2017-12-20T02:22:31.112Z,1019.04
2017-12-20T02:23:31.126Z,1019.04
2017-12-20T02:24:56.809Z,1019.02
2017-12-20T02:25:31.196Z,1019.03
2017-12-20T02:26:31.158Z,1019.02
2017-12-20T02:27:31.170Z,1019.07
2017-12-20T02:28:31.182Z,1019.1
2017-12-20T02:29:31.197Z,1019.14
2017-12-20T02:30:31.258Z,1019.18
2017-12-20T02:31:31.217Z,1019.15
2017-12-20T02:32:31.232Z,1019.21
2017-12-20T02:33:31.242Z,1019.22
2017-12-20T02:34:31.253Z,1019.2
2017-12-20T02:35:31.268Z,1019.15
2017-12-20T02:36:31.277Z,1019.11
2017-12-20T02:37:31.287Z,1019.1
2017-12-20T02:38:31.301Z,1019.08
2017-12-20T02:39:31.313Z,1019.13
2017-12-20T02:40:31.325Z,1019.16
2017-12-20T02:41:31.336Z,1019.17
2017-12-20T02:42:31.350Z,1019.18
2017-12-20T02:43:31.359Z,1019.16
2017-12-20T02:44:31.376Z,1019.16
2017-12-20T02:45:31.383Z,1019.21
2017-12-20T02:46:31.395Z,1019.22
2017-12-20T02:47:31.408Z,1019.26
2017-12-20T02:48:31.417Z,1019.26
2017-12-20T02:49:31.429Z,1019.32
2017-12-20T02:50:31.442Z,1019.35
2017-12-20T02:51:31.454Z,1019.37
2017-12-20T02:52:31.464Z,1019.28
2017-12-20T02:53:31.478Z,1019.28
2017-12-20T02:54:31.488Z,1019.27
2017-12-20T02:55:31.499Z,1019.3
2017-12-20T02:56:31.512Z,1019.3
2017-12-20T02:57:31.524Z,1019.28
2017-12-20T02:58:31.537Z,1019.35
2017-12-20T02:59:31.548Z,1019.36
2017-12-20T03:00:31.559Z,1019.39
2017-12-20T03:01:31.572Z,1019.41
2017-12-20T03:02:31.583Z,1019.41
2017-12-20T03:03:31.594Z,1019.44
2017-12-20T03:04:31.608Z,1019.39
2017-12-20T03:05:31.622Z,1019.41
2017-12-20T03:06:31.629Z,1019.37
2017-12-20T03:07:31.642Z,1019.38
2017-12-20T03:08:31.654Z,1019.41
2017-12-20T03:09:31.665Z,1019.39
2017-12-20T03:10:31.675Z,1019.33
2017-12-20T03:11:31.696Z,1019.36
2017-12-20T03:12:31.700Z,1019.37
2017-12-20T03:13:31.712Z,1019.38
2017-12-20T03:14:31.729Z,1019.39
2017-12-20T03:15:31.736Z,1019.38
2017-12-20T03:16:31.747Z,1019.39
2017-12-20T03:17:31.758Z,1019.36
2017-12-20T03:18:31.769Z,1019.37
2017-12-20T03:19:31.790Z,1019.37
2017-12-20T03:20:31.795Z,1019.34
2017-12-20T03:21:31.806Z,1019.39
2017-12-20T03:22:31.818Z,1019.37
2017-12-20T03:23:31.831Z,1019.42
2017-12-20T03:24:31.843Z,1019.38
2017-12-20T03:25:31.855Z,1019.41
2017-12-20T03:26:31.864Z,1019.44
2017-12-20T03:27:31.878Z,1019.42
2017-12-20T03:28:31.892Z,1019.42
2017-12-20T03:29:31.900Z,1019.41
2017-12-20T03:30:31.913Z,1019.37
2017-12-20T03:31:31.924Z,1019.42
2017-12-20T03:32:31.935Z,1019.51
2017-12-20T03:33:31.947Z,1019.52
2017-12-20T03:34:31.959Z,1019.52
2017-12-20T03:35:31.972Z,1019.48
2017-12-20T03:36:31.982Z,1019.53
2017-12-20T03:37:31.993Z,1019.51
2017-12-20T03:38:32.005Z,1019.5
2017-12-20T03:39:32.023Z,1019.53
2017-12-20T03:40:32.029Z,1019.56
2017-12-20T03:41:32.090Z,1019.53
2017-12-20T03:42:32.054Z,1019.58
2017-12-20T03:43:32.063Z,1019.52
2017-12-20T03:44:32.075Z,1019.46
2017-12-20T03:45:32.088Z,1019.43
2017-12-20T03:46:32.101Z,1019.4
2017-12-20T03:47:32.110Z,1019.31
2017-12-20T03:48:32.122Z,1019.25
2017-12-20T03:49:32.135Z,1019.27
2017-12-20T03:50:32.146Z,1019.24
2017-12-20T03:51:32.207Z,1019.26
2017-12-20T03:52:32.170Z,1019.29
2017-12-20T03:53:32.182Z,1019.32
2017-12-20T03:54:32.192Z,1019.33
2017-12-20T03:55:32.205Z,1019.31
2017-12-20T03:56:32.216Z,1019.31
2017-12-20T03:57:32.228Z,1019.26
2017-12-20T03:58:32.239Z,1019.27
2017-12-20T03:59:32.252Z,1019.23
2017-12-20T04:00:32.263Z,1019.21
2017-12-20T04:01:32.374Z,1019.22
2017-12-20T04:02:32.286Z,1019.25
2017-12-20T04:03:32.299Z,1019.26
2017-12-20T04:04:32.310Z,1019.28
2017-12-20T04:05:32.323Z,1019.26
2017-12-20T04:06:32.334Z,1019.27
2017-12-20T04:07:32.347Z,1019.29
2017-12-20T04:08:32.356Z,1019.28
2017-12-20T04:09:32.368Z,1019.25
2017-12-20T04:10:32.380Z,1019.21
2017-12-20T04:11:32.392Z,1019.21
2017-12-20T04:12:32.403Z,1019.22
2017-12-20T04:13:32.414Z,1019.22
2017-12-20T04:14:32.427Z,1019.28
2017-12-20T04:15:32.441Z,1019.27
2017-12-20T04:16:32.450Z,1019.24
2017-12-20T04:17:32.462Z,1019.24
2017-12-20T04:18:32.473Z,1019.27
2017-12-20T04:19:32.488Z,1019.23
2017-12-20T04:20:32.497Z,1019.24
2017-12-20T04:21:32.508Z,1019.26
2017-12-20T04:22:32.521Z,1019.24
2017-12-20T04:23:32.531Z,1019.23
2017-12-20T04:24:32.542Z,1019.29
2017-12-20T04:25:32.556Z,1019.26
2017-12-20T04:26:32.568Z,1019.21
2017-12-20T04:27:32.579Z,1019.23
2017-12-20T04:28:32.590Z,1019.28
2017-12-20T04:29:32.605Z,1019.25
2017-12-20T04:30:32.614Z,1019.27
2017-12-20T04:31:32.626Z,1019.23
2017-12-20T04:32:32.638Z,1019.2
2017-12-20T04:33:32.650Z,1019.22
2017-12-20T04:34:32.661Z,1019.2
2017-12-20T04:35:32.672Z,1019.16
2017-12-20T04:36:32.685Z,1019.2
2017-12-20T04:37:32.697Z,1019.2
2017-12-20T04:38:32.709Z,1019.2
2017-12-20T04:39:32.721Z,1019.18
2017-12-20T04:40:32.731Z,1019.15
2017-12-20T04:41:32.741Z,1019.16
2017-12-20T04:42:32.754Z,1019.16
2017-12-20T04:43:32.766Z,1019.12
2017-12-20T04:44:32.779Z,1019.17
2017-12-20T04:45:32.790Z,1019.18
2017-12-20T04:46:32.801Z,1019.12
2017-12-20T04:47:32.813Z,1019.14
2017-12-20T04:48:32.826Z,1019.16
2017-12-20T04:49:32.835Z,1019.19
2017-12-20T04:50:32.849Z,1019.21
2017-12-20T04:51:32.864Z,1019.23
2017-12-20T04:52:32.871Z,1019.21
2017-12-20T04:53:32.883Z,1019.24
2017-12-20T04:54:32.895Z,1019.22
2017-12-20T04:55:32.906Z,1019.26
2017-12-20T04:56:32.918Z,1019.23
2017-12-20T04:57:32.929Z,1019.26
2017-12-20T04:58:32.944Z,1019.25
2017-12-20T04:59:32.953Z,1019.27
2017-12-20T05:00:32.964Z,1019.26
2017-12-20T05:01:32.976Z,1019.25
2017-12-20T05:02:32.988Z,1019.24
2017-12-20T05:03:32.999Z,1019.23
2017-12-20T05:04:33.013Z,1019.25
2017-12-20T05:05:33.023Z,1019.21
2017-12-20T05:06:33.038Z,1019.2
2017-12-20T05:07:33.045Z,1019.17
2017-12-20T05:08:33.057Z,1019.15
2017-12-20T05:09:33.069Z,1019.17
2017-12-20T05:10:33.086Z,1019.17
2017-12-20T05:11:33.092Z,1019.16
2017-12-20T05:12:33.107Z,1019.18
2017-12-20T05:13:33.115Z,1019.19
2017-12-20T05:14:33.126Z,1019.2
2017-12-20T05:15:33.138Z,1019.19
2017-12-20T05:16:33.151Z,1019.22
2017-12-20T05:17:33.162Z,1019.26
2017-12-20T05:18:33.179Z,1019.29
2017-12-20T05:19:33.187Z,1019.33
2017-12-20T05:20:33.200Z,1019.3
2017-12-20T05:21:33.210Z,1019.34
2017-12-20T05:22:33.219Z,1019.34
2017-12-20T05:23:33.232Z,1019.35
2017-12-20T05:24:33.244Z,1019.32
2017-12-20T05:25:33.255Z,1019.36
2017-12-20T05:26:33.268Z,1019.37
2017-12-20T05:27:33.279Z,1019.38
2017-12-20T05:28:33.292Z,1019.43
2017-12-20T05:29:33.301Z,1019.43
2017-12-20T05:30:33.316Z,1019.44
2017-12-20T05:31:33.326Z,1019.47
2017-12-20T05:32:33.336Z,1019.49
2017-12-20T05:33:33.348Z,1019.47
2017-12-20T05:34:33.359Z,1019.48
2017-12-20T05:35:33.371Z,1019.5
2017-12-20T05:36:33.382Z,1019.51
2017-12-20T05:37:33.399Z,1019.53
2017-12-20T05:38:33.410Z,1019.46
2017-12-20T05:39:33.418Z,1019.46
2017-12-20T05:40:33.429Z,1019.42
2017-12-20T05:41:33.440Z,1019.47
2017-12-20T05:42:33.452Z,1019.46
2017-12-20T05:43:33.465Z,1019.44
2017-12-20T05:44:33.477Z,1019.47
2017-12-20T05:45:33.486Z,1019.48
2017-12-20T05:46:33.499Z,1019.47
2017-12-20T05:47:33.511Z,1019.44
2017-12-20T05:48:33.522Z,1019.48
2017-12-20T05:49:33.533Z,1019.51
2017-12-20T05:50:33.546Z,1019.54
2017-12-20T05:51:33.555Z,1019.5
2017-12-20T05:52:33.567Z,1019.47
2017-12-20T05:53:33.583Z,1019.48
2017-12-20T05:54:33.591Z,1019.44
2017-12-20T05:55:33.602Z,1019.44
2017-12-20T05:56:33.613Z,1019.43
2017-12-20T05:57:33.626Z,1019.48
2017-12-20T05:58:33.639Z,1019.5
2017-12-20T05:59:33.647Z,1019.49
2017-12-20T06:00:33.661Z,1019.5
2017-12-20T06:01:33.671Z,1019.51
2017-12-20T06:02:33.682Z,1019.52
2017-12-20T06:03:33.695Z,1019.52
2017-12-20T06:04:33.707Z,1019.58
2017-12-20T06:05:33.717Z,1019.6
2017-12-20T06:06:33.730Z,1019.61
2017-12-20T06:07:33.741Z,1019.65
2017-12-20T06:08:33.752Z,1019.66
2017-12-20T06:09:33.762Z,1019.71
2017-12-20T06:10:33.775Z,1019.71
2017-12-20T06:11:33.787Z,1019.75
2017-12-20T06:12:33.799Z,1019.76
2017-12-20T06:13:33.809Z,1019.76
2017-12-20T06:14:33.821Z,1019.74
2017-12-20T06:15:33.832Z,1019.76
2017-12-20T06:16:33.843Z,1019.78
2017-12-20T06:17:33.855Z,1019.8
2017-12-20T06:18:33.867Z,1019.84
2017-12-20T06:19:33.879Z,1019.81
2017-12-20T06:20:33.888Z,1019.84
2017-12-20T06:21:33.900Z,1019.83
2017-12-20T06:22:33.913Z,1019.81
2017-12-20T06:23:33.932Z,1019.81
2017-12-20T06:24:33.935Z,1019.78
2017-12-20T06:25:33.947Z,1019.84
2017-12-20T06:26:33.958Z,1019.77
2017-12-20T06:27:33.970Z,1019.84
2017-12-20T06:28:33.980Z,1019.82
2017-12-20T06:29:33.994Z,1019.86
2017-12-20T06:30:34.007Z,1019.87
2017-12-20T06:31:34.015Z,1019.85
2017-12-20T06:32:34.027Z,1019.84
2017-12-20T06:33:34.057Z,1019.85
2017-12-20T06:34:34.052Z,1019.84
2017-12-20T06:35:34.060Z,1019.84
2017-12-20T06:36:34.072Z,1019.83
2017-12-20T06:37:34.083Z,1019.86
2017-12-20T06:38:34.094Z,1019.9
2017-12-20T06:39:34.108Z,1019.88
2017-12-20T06:40:34.119Z,1019.92
2017-12-20T06:41:34.130Z,1019.9
2017-12-20T06:42:34.142Z,1019.92
2017-12-20T06:43:34.153Z,1019.94
2017-12-20T06:44:34.167Z,1019.96
2017-12-20T06:45:34.177Z,1019.94
2017-12-20T06:46:34.187Z,1019.96
2017-12-20T06:47:34.198Z,1019.96
2017-12-20T06:48:34.212Z,1019.95
2017-12-20T06:49:34.221Z,1019.97
2017-12-20T06:50:34.236Z,1019.99
2017-12-20T06:51:34.244Z,1019.97
2017-12-20T06:52:34.256Z,1020.01
2017-12-20T06:53:34.266Z,1020.02
2017-12-20T06:54:34.278Z,1020.01
2017-12-20T06:55:34.291Z,1020.04
2017-12-20T06:56:34.302Z,1020.05
2017-12-20T06:57:34.312Z,1020.05
2017-12-20T06:58:34.324Z,1020.1
2017-12-20T06:59:34.340Z,1020.13
2017-12-20T07:00:34.346Z,1020.09
2017-12-20T07:01:34.358Z,1020.13
2017-12-20T07:02:34.370Z,1020.19
2017-12-20T07:03:34.382Z,1020.21
2017-12-20T07:04:34.392Z,1020.23
2017-12-20T07:05:34.406Z,1020.21
2017-12-20T07:06:34.416Z,1020.24
2017-12-20T07:07:34.426Z,1020.24
2017-12-20T07:08:34.438Z,1020.28
2017-12-20T07:09:34.450Z,1020.25
2017-12-20T07:10:34.461Z,1020.28
2017-12-20T07:11:34.472Z,1020.29
2017-12-20T07:12:34.484Z,1020.28
2017-12-20T07:13:34.498Z,1020.29
2017-12-20T07:14:34.508Z,1020.25
2017-12-20T07:15:34.518Z,1020.19
2017-12-20T07:16:34.531Z,1020.24
2017-12-20T07:17:34.542Z,1020.25
2017-12-20T07:18:34.554Z,1020.24
2017-12-20T07:19:34.565Z,1020.23
2017-12-20T07:20:34.574Z,1020.27
2017-12-20T07:21:34.587Z,1020.25
2017-12-20T07:22:34.599Z,1020.26
2017-12-20T07:23:34.617Z,1020.26
2017-12-20T07:24:34.621Z,1020.22
2017-12-20T07:25:34.639Z,1020.22
2017-12-20T07:26:34.649Z,1020.27
2017-12-20T07:27:34.655Z,1020.23
2017-12-20T07:28:34.667Z,1020.25
2017-12-20T07:29:34.680Z,1020.24
2017-12-20T07:30:34.690Z,1020.26
2017-12-20T07:31:34.702Z,1020.26
2017-12-20T07:32:34.715Z,1020.26
2017-12-20T07:33:34.724Z,1020.3
2017-12-20T07:34:34.736Z,1020.34
2017-12-20T07:35:34.749Z,1020.32
2017-12-20T07:36:34.761Z,1020.32
2017-12-20T07:37:34.770Z,1020.33
2017-12-20T07:38:34.782Z,1020.31
2017-12-20T07:39:34.793Z,1020.35
2017-12-20T07:40:34.811Z,1020.39
2017-12-20T07:41:34.820Z,1020.37
2017-12-20T07:42:34.830Z,1020.39
2017-12-20T07:43:34.843Z,1020.39
2017-12-20T07:44:34.852Z,1020.41
2017-12-20T07:45:34.864Z,1020.39
2017-12-20T07:46:34.876Z,1020.4
2017-12-20T07:47:34.892Z,1020.4
2017-12-20T07:48:34.900Z,1020.43
2017-12-20T07:49:34.910Z,1020.42
2017-12-20T07:50:34.923Z,1020.44
2017-12-20T07:51:34.934Z,1020.42
2017-12-20T07:52:34.945Z,1020.41
2017-12-20T07:53:34.958Z,1020.42
2017-12-20T07:54:34.973Z,1020.43
2017-12-20T07:55:34.979Z,1020.44
2017-12-20T07:56:34.997Z,1020.43
2017-12-20T07:57:35.003Z,1020.44
2017-12-20T07:58:35.014Z,1020.44
2017-12-20T07:59:35.027Z,1020.43
2017-12-20T08:00:35.040Z,1020.43
2017-12-20T08:01:35.050Z,1020.46
2017-12-20T08:02:35.126Z,1020.45
2017-12-20T08:03:35.076Z,1020.46
2017-12-20T08:04:35.085Z,1020.48
2017-12-20T08:05:35.098Z,1020.49
2017-12-20T08:06:35.107Z,1020.52
2017-12-20T08:07:35.118Z,1020.52
2017-12-20T08:08:35.130Z,1020.55
2017-12-20T08:09:35.144Z,1020.52
2017-12-20T08:10:35.153Z,1020.55
2017-12-20T08:11:35.167Z,1020.57
2017-12-20T08:12:35.178Z,1020.54
2017-12-20T08:13:35.188Z,1020.55
2017-12-20T08:14:35.199Z,1020.55
2017-12-20T08:15:35.212Z,1020.56
2017-12-20T08:16:35.225Z,1020.53
2017-12-20T08:17:35.236Z,1020.57
2017-12-20T08:18:35.247Z,1020.56
2017-12-20T08:19:35.259Z,1020.58
2017-12-20T08:20:35.271Z,1020.57
2017-12-20T08:21:35.284Z,1020.63
2017-12-20T08:22:35.301Z,1020.66
2017-12-20T08:23:35.306Z,1020.72
2017-12-20T08:24:35.318Z,1020.68
2017-12-20T08:25:35.328Z,1020.74
2017-12-20T08:26:35.344Z,1020.75
2017-12-20T08:27:35.404Z,1020.77
2017-12-20T08:28:35.362Z,1020.76
2017-12-20T08:29:35.382Z,1020.76
2017-12-20T08:30:35.387Z,1020.78
2017-12-20T08:31:35.399Z,1020.78
2017-12-20T08:32:35.410Z,1020.81
2017-12-20T08:33:35.424Z,1020.83
2017-12-20T08:34:35.433Z,1020.88
2017-12-20T08:35:35.446Z,1020.85
2017-12-20T08:36:35.456Z,1020.89
2017-12-20T08:37:35.469Z,1020.89
2017-12-20T08:38:35.480Z,1020.92
2017-12-20T08:39:35.490Z,1020.93
2017-12-20T08:40:35.503Z,1020.91
2017-12-20T08:41:35.516Z,1020.96
2017-12-20T08:42:35.532Z,1020.95
2017-12-20T08:43:35.539Z,1020.91
2017-12-20T08:44:35.549Z,1020.94
2017-12-20T08:45:35.562Z,1020.97
2017-12-20T08:46:35.573Z,1020.97
2017-12-20T08:47:35.586Z,1020.97
2017-12-20T08:48:35.597Z,1020.94
2017-12-20T08:49:35.613Z,1020.92
2017-12-20T08:50:35.623Z,1020.93
2017-12-20T08:51:35.636Z,1020.95
2017-12-20T08:52:35.645Z,1020.9
2017-12-20T08:53:35.657Z,1020.88
2017-12-20T08:54:35.668Z,1020.91
2017-12-20T08:55:35.681Z,1020.87
2017-12-20T08:56:35.691Z,1020.85
2017-12-20T08:57:35.703Z,1020.81
2017-12-20T08:58:35.715Z,1020.86
2017-12-20T08:59:35.728Z,1020.82
2017-12-20T09:00:35.741Z,1020.85
2017-12-20T09:01:35.775Z,1020.78
2017-12-20T09:02:35.764Z,1020.81
2017-12-20T09:03:35.775Z,1020.81
2017-12-20T09:04:35.806Z,1020.79
2017-12-20T09:05:35.798Z,1020.77
2017-12-20T09:06:35.810Z,1020.74
2017-12-20T09:07:35.821Z,1020.73
2017-12-20T09:08:35.837Z,1020.77
2017-12-20T09:09:35.848Z,1020.76
2017-12-20T09:10:35.858Z,1020.76
2017-12-20T09:11:35.872Z,1020.78
2017-12-20T09:12:35.881Z,1020.77
2017-12-20T09:13:35.894Z,1020.77
2017-12-20T09:14:35.907Z,1020.79
2017-12-20T09:15:35.918Z,1020.8
2017-12-20T09:16:35.929Z,1020.81
2017-12-20T09:17:35.942Z,1020.81
2017-12-20T09:18:35.955Z,1020.83
2017-12-20T09:19:35.968Z,1020.84
2017-12-20T09:20:35.979Z,1020.84
2017-12-20T09:21:35.990Z,1020.87
2017-12-20T09:22:36.004Z,1020.83
2017-12-20T09:23:36.014Z,1020.83
2017-12-20T09:24:36.027Z,1020.8
2017-12-20T09:25:36.040Z,1020.79
2017-12-20T09:26:36.057Z,1020.83
2017-12-20T09:27:36.063Z,1020.76
2017-12-20T09:28:36.075Z,1020.84
2017-12-20T09:29:36.087Z,1020.83
2017-12-20T09:30:36.104Z,1020.82
2017-12-20T09:31:36.112Z,1020.84
2017-12-20T09:32:36.123Z,1020.83
2017-12-20T09:33:36.169Z,1020.79
2017-12-20T09:34:36.147Z,1020.79
2017-12-20T09:35:36.159Z,1020.79
2017-12-20T09:36:36.170Z,1020.78
2017-12-20T09:37:36.183Z,1020.84
2017-12-20T09:38:36.197Z,1020.81
2017-12-20T09:39:36.209Z,1020.86
2017-12-20T09:40:36.221Z,1020.87
2017-12-20T09:41:36.231Z,1020.87
2017-12-20T09:42:36.245Z,1020.79
2017-12-20T09:43:36.256Z,1020.79
2017-12-20T09:44:36.268Z,1020.83
2017-12-20T09:45:36.279Z,1020.79
2017-12-20T09:46:36.292Z,1020.82
2017-12-20T09:47:36.307Z,1020.78
2017-12-20T09:48:36.367Z,1020.82
2017-12-20T09:49:36.331Z,1020.81
2017-12-20T09:50:36.341Z,1020.81
2017-12-20T09:51:36.352Z,1020.8
2017-12-20T09:52:36.365Z,1020.79
2017-12-20T09:53:36.380Z,1020.79
2017-12-20T09:54:36.389Z,1020.8
2017-12-20T09:55:36.404Z,1020.84
2017-12-20T09:56:36.415Z,1020.81
2017-12-20T09:57:36.425Z,1020.84
2017-12-20T09:58:36.437Z,1020.81
2017-12-20T09:59:36.450Z,1020.84
2017-12-20T10:00:36.463Z,1020.83
2017-12-20T10:01:36.476Z,1020.84
2017-12-20T10:02:36.487Z,1020.84
2017-12-20T10:03:36.499Z,1020.81
2017-12-20T10:04:36.513Z,1020.82
2017-12-20T10:05:36.525Z,1020.8
2017-12-20T10:06:36.538Z,1020.84
2017-12-20T10:07:36.548Z,1020.81
2017-12-20T10:08:36.560Z,1020.84
2017-12-20T10:09:36.573Z,1020.83
2017-12-20T10:10:36.584Z,1020.84
2017-12-20T10:11:36.597Z,1020.82
2017-12-20T10:12:36.611Z,1020.79
2017-12-20T10:13:36.673Z,1020.82
2017-12-20T10:14:36.636Z,1020.82
2017-12-20T10:15:36.648Z,1020.83
2017-12-20T10:16:36.659Z,1020.87
2017-12-20T10:17:36.673Z,1020.83
2017-12-20T10:18:36.683Z,1020.79
2017-12-20T10:19:36.696Z,1020.81
2017-12-20T10:20:36.709Z,1020.8
2017-12-20T10:21:36.721Z,1020.77
2017-12-20T10:22:36.734Z,1020.75
2017-12-20T10:23:36.745Z,1020.77
2017-12-20T10:24:36.758Z,1020.76
2017-12-20T10:25:36.770Z,1020.74
2017-12-20T10:26:36.807Z,1020.72
2017-12-20T10:27:36.794Z,1020.73
2017-12-20T10:28:36.857Z,1020.72
2017-12-20T10:29:36.821Z,1020.75
2017-12-20T10:30:36.832Z,1020.73
2017-12-20T10:31:36.845Z,1020.73
2017-12-20T10:32:36.856Z,1020.74
2017-12-20T10:33:36.869Z,1020.76
2017-12-20T10:34:36.881Z,1020.73
2017-12-20T10:35:36.894Z,1020.7
2017-12-20T10:36:36.905Z,1020.72
2017-12-20T10:37:36.919Z,1020.7
2017-12-20T10:38:36.980Z,1020.69
2017-12-20T10:39:36.945Z,1020.68
2017-12-20T10:40:36.955Z,1020.69
2017-12-20T10:41:36.969Z,1020.67
2017-12-20T10:42:36.981Z,1020.63
2017-12-20T10:43:37.042Z,1020.66
2017-12-20T10:44:37.004Z,1020.65
2017-12-20T10:45:37.017Z,1020.64
2017-12-20T10:46:37.030Z,1020.63
2017-12-20T10:47:37.041Z,1020.62
2017-12-20T10:48:37.056Z,1020.63
2017-12-20T10:49:37.068Z,1020.62
2017-12-20T10:50:37.080Z,1020.61
2017-12-20T10:51:37.092Z,1020.63
2017-12-20T10:52:37.107Z,1020.65
2017-12-20T10:53:37.119Z,1020.64
2017-12-20T10:54:37.130Z,1020.63
2017-12-20T10:55:37.144Z,1020.63
2017-12-20T10:56:37.156Z,1020.63
2017-12-20T10:57:37.169Z,1020.63
2017-12-20T10:58:37.231Z,1020.59
2017-12-20T10:59:37.197Z,1020.6
2017-12-20T11:00:37.207Z,1020.61
2017-12-20T11:01:37.218Z,1020.58
2017-12-20T11:02:37.242Z,1020.56
2017-12-20T11:03:37.243Z,1020.55
2017-12-20T11:04:37.257Z,1020.57
2017-12-20T11:05:37.269Z,1020.57
2017-12-20T11:06:37.284Z,1020.53
2017-12-20T11:07:37.294Z,1020.56
2017-12-20T11:08:37.360Z,1020.54
2017-12-20T11:09:37.319Z,1020.53
2017-12-20T11:10:37.331Z,1020.56
2017-12-20T11:11:37.346Z,1020.54
2017-12-20T11:12:37.357Z,1020.56
2017-12-20T11:13:37.419Z,1020.58
2017-12-20T11:14:37.382Z,1020.58
2017-12-20T11:15:37.397Z,1020.58
2017-12-20T11:16:37.409Z,1020.57
2017-12-20T11:17:37.420Z,1020.59
2017-12-20T11:18:37.433Z,1020.62
2017-12-20T11:19:37.465Z,1020.58
2017-12-20T11:20:37.458Z,1020.61
2017-12-20T11:21:37.471Z,1020.61
2017-12-20T11:22:37.483Z,1020.55
2017-12-20T11:23:37.546Z,1020.54
2017-12-20T11:24:37.509Z,1020.47
2017-12-20T11:25:37.524Z,1020.52
2017-12-20T11:26:37.535Z,1020.46
2017-12-20T11:27:37.548Z,1020.45
2017-12-20T11:28:37.560Z,1020.41
2017-12-20T11:29:37.573Z,1020.4
2017-12-20T11:30:37.586Z,1020.4
2017-12-20T11:31:37.600Z,1020.43
2017-12-20T11:32:37.613Z,1020.41
2017-12-20T11:33:37.676Z,1020.36
2017-12-20T11:34:37.639Z,1020.37
2017-12-20T11:35:37.650Z,1020.38
2017-12-20T11:36:37.665Z,1020.39
2017-12-20T11:37:37.676Z,1020.37
2017-12-20T11:38:37.739Z,1020.35
2017-12-20T11:39:37.702Z,1020.41
2017-12-20T11:40:37.716Z,1020.45
2017-12-20T11:41:37.729Z,1020.42
2017-12-20T11:42:37.748Z,1020.43
2017-12-20T11:43:37.805Z,1020.44
2017-12-20T11:44:37.768Z,1020.47
2017-12-20T11:45:37.780Z,1020.44
2017-12-20T11:46:37.796Z,1020.44
2017-12-20T11:47:37.805Z,1020.42
2017-12-20T11:48:37.819Z,1020.35
2017-12-20T11:49:37.833Z,1020.39
2017-12-20T11:50:37.847Z,1020.38
2017-12-20T11:51:37.866Z,1020.37
2017-12-20T11:52:37.876Z,1020.35
2017-12-20T11:53:37.937Z,1020.36
2017-12-20T11:54:37.899Z,1020.34
2017-12-20T11:55:37.912Z,1020.32
2017-12-20T11:56:37.924Z,1020.31
2017-12-20T11:57:37.939Z,1020.27
2017-12-20T11:58:38.001Z,1020.3
2017-12-20T11:59:37.969Z,1020.27
2017-12-20T12:00:37.983Z,1020.26
2017-12-20T12:01:37.990Z,1020.25
2017-12-20T12:02:38.006Z,1020.21
2017-12-20T12:03:38.072Z,1020.23
2017-12-20T12:04:38.030Z,1020.21
2017-12-20T12:05:38.044Z,1020.22
2017-12-20T12:06:38.084Z,1020.23
2017-12-20T12:07:38.074Z,1020.2